sensor_id;sensor_type;location;lat;lon;timestamp;pressure;altitude;pressure_sealevel;temperature;humidity
68965;BME280;56017;48.680;8.998;2023-04-21T00:02:16;96310;;;5.3;78.5
68965;BME280;56017;48.680;8.998;2023-04-21T00:04:47;96310;;;5.3;78
68965;BME280;56017;48.680;8.998;2023-04-21T00:07:18;96320;;;5.2;78
68965;BME280;56017;48.680;8.998;2023-04-21T00:09:49;96320;;;5;78
68965;BME280;56017;48.680;8.998;2023-04-21T00:12:27;96320;;;4.8;78.5
68965;BME280;56017;48.680;8.998;2023-04-21T00:14:51;96310;;;4.7;78.5
68965;BME280;56017;48.680;8.998;2023-04-21T00:17:28;96310;;;4.7;79
68965;BME280;56017;48.680;8.998;2023-04-21T00:19:53;96310;;;4.7;79
68965;BME280;56017;48.680;8.998;2023-04-21T00:22:24;96310;;;4.8;79
68965;BME280;56017;48.680;8.998;2023-04-21T00:24:55;96310;;;4.8;78.5
68965;BME280;56017;48.680;8.998;2023-04-21T00:27:26;96310;;;4.7;78.5
68965;BME280;56017;48.680;8.998;2023-04-21T00:29:57;96300;;;4.6;78.5
68965;BME280;56017;48.680;8.998;2023-04-21T00:32:28;96290;;;4.6;78.5
68965;BME280;56017;48.680;8.998;2023-04-21T00:34:59;96290;;;4.6;79
68965;BME280;56017;48.680;8.998;2023-04-21T00:37:36;96290;;;4.6;79
68965;BME280;56017;48.680;8.998;2023-04-21T00:40:00;96280;;;4.6;79
68965;BME280;56017;48.680;8.998;2023-04-21T00:45:03;96290;;;4.6;78.5
68965;BME280;56017;48.680;8.998;2023-04-21T00:47:33;96280;;;4.5;79
68965;BME280;56017;48.680;8.998;2023-04-21T00:50:04;96300;;;4.6;79
68965;BME280;56017;48.680;8.998;2023-04-21T00:52:35;96300;;;4.6;78.5
68965;BME280;56017;48.680;8.998;2023-04-21T00:55:06;96290;;;4.5;78.5
68965;BME280;56017;48.680;8.998;2023-04-21T00:57:37;96290;;;4.6;78.5
68965;BME280;56017;48.680;8.998;2023-04-21T01:00:08;96290;;;4.6;79
68965;BME280;56017;48.680;8.998;2023-04-21T01:02:39;96290;;;4.6;78.5
68965;BME280;56017;48.680;8.998;2023-04-21T01:05:10;96290;;;4.5;78.5
68965;BME280;56017;48.680;8.998;2023-04-21T01:07:48;96280;;;4.5;78.5
68965;BME280;56017;48.680;8.998;2023-04-21T01:10:13;96280;;;4.5;78.5
68965;BME280;56017;48.680;8.998;2023-04-21T01:12:43;96280;;;4.4;79
68965;BME280;56017;48.680;8.998;2023-04-21T01:15:15;96290;;;4.4;79
68965;BME280;56017;48.680;8.998;2023-04-21T01:17:51;96280;;;4.4;78.5
68965;BME280;56017;48.680;8.998;2023-04-21T01:20:16;96280;;;4.3;78
68965;BME280;56017;48.680;8.998;2023-04-21T01:22:47;96280;;;4.2;78.5
68965;BME280;56017;48.680;8.998;2023-04-21T01:25:24;96280;;;4.2;78.5
68965;BME280;56017;48.680;8.998;2023-04-21T01:27:49;96280;;;4.1;78.5
68965;BME280;56017;48.680;8.998;2023-04-21T01:30:20;96290;;;4.1;78.5
68965;BME280;56017;48.680;8.998;2023-04-21T01:32:51;96290;;;4;78.5
68965;BME280;56017;48.680;8.998;2023-04-21T01:35:22;96290;;;4;79
68965;BME280;56017;48.680;8.998;2023-04-21T01:37:53;96300;;;4.1;79
68965;BME280;56017;48.680;8.998;2023-04-21T01:40:24;96290;;;4;79
68965;BME280;56017;48.680;8.998;2023-04-21T01:42:55;96290;;;3.9;79.5
68965;BME280;56017;48.680;8.998;2023-04-21T01:45:25;96290;;;3.8;79.5
68965;BME280;56017;48.680;8.998;2023-04-21T01:47:56;96290;;;3.8;79.5
68965;BME280;56017;48.680;8.998;2023-04-21T01:50:27;96290;;;3.8;79.5
68965;BME280;56017;48.680;8.998;2023-04-21T01:52:58;96290;;;3.8;79.5
68965;BME280;56017;48.680;8.998;2023-04-21T01:55:29;96290;;;3.8;79.5
68965;BME280;56017;48.680;8.998;2023-04-21T01:58:00;96290;;;3.7;79.5
68965;BME280;56017;48.680;8.998;2023-04-21T02:00:31;96280;;;3.6;79.5
68965;BME280;56017;48.680;8.998;2023-04-21T02:03:02;96290;;;3.5;79.5
68965;BME280;56017;48.680;8.998;2023-04-21T02:05:34;96290;;;3.6;79.5
68965;BME280;56017;48.680;8.998;2023-04-21T02:08:04;96300;;;3.6;79
68965;BME280;56017;48.680;8.998;2023-04-21T02:10:35;96290;;;3.6;78.5
68965;BME280;56017;48.680;8.998;2023-04-21T02:13:13;96300;;;3.4;79
68965;BME280;56017;48.680;8.998;2023-04-21T02:15:37;96300;;;3.4;79
68965;BME280;56017;48.680;8.998;2023-04-21T02:18:08;96290;;;3.3;79
68965;BME280;56017;48.680;8.998;2023-04-21T02:20:39;96290;;;3.3;79
68965;BME280;56017;48.680;8.998;2023-04-21T02:23:10;96280;;;3.3;78.5
68965;BME280;56017;48.680;8.998;2023-04-21T02:25:41;96290;;;3.3;78.5
68965;BME280;56017;48.680;8.998;2023-04-21T02:28:12;96290;;;3.3;78.5
68965;BME280;56017;48.680;8.998;2023-04-21T02:30:43;96290;;;3.2;78.5
68965;BME280;56017;48.680;8.998;2023-04-21T02:33:14;96290;;;3;79
68965;BME280;56017;48.680;8.998;2023-04-21T02:35:45;96290;;;2.8;79.5
68965;BME280;56017;48.680;8.998;2023-04-21T02:38:16;96290;;;2.8;79.5
68965;BME280;56017;48.680;8.998;2023-04-21T02:40:47;96290;;;2.8;79.5
68965;BME280;56017;48.680;8.998;2023-04-21T02:43:18;96290;;;2.7;79.5
68965;BME280;56017;48.680;8.998;2023-04-21T02:45:49;96300;;;2.8;79.5
68965;BME280;56017;48.680;8.998;2023-04-21T02:48:20;96300;;;2.8;79
68965;BME280;56017;48.680;8.998;2023-04-21T02:50:51;96300;;;2.9;79
68965;BME280;56017;48.680;8.998;2023-04-21T02:53:22;96310;;;2.8;78.5
68965;BME280;56017;48.680;8.998;2023-04-21T02:55:53;96300;;;2.8;78.5
68965;BME280;56017;48.680;8.998;2023-04-21T02:58:24;96310;;;2.8;78.5
68965;BME280;56017;48.680;8.998;2023-04-21T03:00:55;96300;;;2.7;78.5
68965;BME280;56017;48.680;8.998;2023-04-21T03:03:26;96300;;;2.6;79
68965;BME280;56017;48.680;8.998;2023-04-21T03:05:57;96290;;;2.5;79.5
68965;BME280;56017;48.680;8.998;2023-04-21T03:08:34;96280;;;2.4;79.5
68965;BME280;56017;48.680;8.998;2023-04-21T03:10:59;96280;;;2.4;79.5
68965;BME280;56017;48.680;8.998;2023-04-21T03:13:29;96280;;;2.5;79.5
68965;BME280;56017;48.680;8.998;2023-04-21T03:16:00;96280;;;2.6;79
68965;BME280;56017;48.680;8.998;2023-04-21T03:18:33;96280;;;2.6;79
68965;BME280;56017;48.680;8.998;2023-04-21T03:21:02;96280;;;2.7;78.5
68965;BME280;56017;48.680;8.998;2023-04-21T03:23:33;96280;;;2.7;78.5
68965;BME280;56017;48.680;8.998;2023-04-21T03:26:05;96280;;;2.7;78.5
68965;BME280;56017;48.680;8.998;2023-04-21T03:28:35;96280;;;2.7;79
68965;BME280;56017;48.680;8.998;2023-04-21T03:31:06;96280;;;2.8;78.5
68965;BME280;56017;48.680;8.998;2023-04-21T03:33:44;96280;;;2.8;78.5
68965;BME280;56017;48.680;8.998;2023-04-21T03:36:08;96280;;;2.8;78.5
68965;BME280;56017;48.680;8.998;2023-04-21T03:38:39;96280;;;2.8;78.5
68965;BME280;56017;48.680;8.998;2023-04-21T03:41:10;96280;;;2.9;78.5
68965;BME280;56017;48.680;8.998;2023-04-21T03:43:41;96290;;;3;78
68965;BME280;56017;48.680;8.998;2023-04-21T03:46:19;96290;;;3;78
68965;BME280;56017;48.680;8.998;2023-04-21T03:48:43;96280;;;2.9;78
68965;BME280;56017;48.680;8.998;2023-04-21T03:51:15;96280;;;2.9;78
68965;BME280;56017;48.680;8.998;2023-04-21T03:53:45;96290;;;2.9;78.5
68965;BME280;56017;48.680;8.998;2023-04-21T03:56:16;96280;;;2.9;78.5
68965;BME280;56017;48.680;8.998;2023-04-21T03:58:47;96280;;;3;78.5
68965;BME280;56017;48.680;8.998;2023-04-21T04:01:25;96280;;;3;78
68965;BME280;56017;48.680;8.998;2023-04-21T04:03:55;96280;;;3.1;78
68965;BME280;56017;48.680;8.998;2023-04-21T04:06:20;96280;;;3.1;78
68965;BME280;56017;48.680;8.998;2023-04-21T04:08:57;96280;;;3;78
68965;BME280;56017;48.680;8.998;2023-04-21T04:11:22;96270;;;2.8;78.5
68965;BME280;56017;48.680;8.998;2023-04-21T04:13:53;96270;;;2.8;78.5
68965;BME280;56017;48.680;8.998;2023-04-21T04:16:24;96280;;;2.8;78.5
68965;BME280;56017;48.680;8.998;2023-04-21T04:18:55;96280;;;2.9;78.5
68965;BME280;56017;48.680;8.998;2023-04-21T04:21:26;96290;;;2.9;78.5
68965;BME280;56017;48.680;8.998;2023-04-21T04:23:57;96290;;;2.9;78.5
68965;BME280;56017;48.680;8.998;2023-04-21T04:26:27;96290;;;2.9;78
68965;BME280;56017;48.680;8.998;2023-04-21T04:28:59;96290;;;2.8;78.5
68965;BME280;56017;48.680;8.998;2023-04-21T04:31:30;96280;;;2.8;79
68965;BME280;56017;48.680;8.998;2023-04-21T04:34:00;96280;;;2.9;78.5
68965;BME280;56017;48.680;8.998;2023-04-21T04:36:31;96280;;;3;78.5
68965;BME280;56017;48.680;8.998;2023-04-21T04:39:02;96290;;;3;78
68965;BME280;56017;48.680;8.998;2023-04-21T04:41:33;96280;;;3;78
68965;BME280;56017;48.680;8.998;2023-04-21T04:44:04;96280;;;3;78.5
68965;BME280;56017;48.680;8.998;2023-04-21T04:46:35;96280;;;3;78
68965;BME280;56017;48.680;8.998;2023-04-21T04:49:06;96280;;;3;78
68965;BME280;56017;48.680;8.998;2023-04-21T04:51:37;96280;;;2.9;78
68965;BME280;56017;48.680;8.998;2023-04-21T04:54:08;96280;;;2.9;78.5
68965;BME280;56017;48.680;8.998;2023-04-21T04:56:39;96290;;;3;78
68965;BME280;56017;48.680;8.998;2023-04-21T04:59:10;96290;;;2.9;78.5
68965;BME280;56017;48.680;8.998;2023-04-21T05:01:41;96290;;;2.9;78.5
68965;BME280;56017;48.680;8.998;2023-04-21T05:04:12;96290;;;3;78.5
68965;BME280;56017;48.680;8.998;2023-04-21T05:06:43;96300;;;3;79
68965;BME280;56017;48.680;8.998;2023-04-21T05:09:14;96300;;;3;79
68965;BME280;56017;48.680;8.998;2023-04-21T05:11:45;96310;;;3.1;78.5
68965;BME280;56017;48.680;8.998;2023-04-21T05:14:16;96310;;;3.2;78.5
68965;BME280;56017;48.680;8.998;2023-04-21T05:16:47;96310;;;3.4;78.5
68965;BME280;56017;48.680;8.998;2023-04-21T05:19:18;96310;;;3.5;78.5
68965;BME280;56017;48.680;8.998;2023-04-21T05:21:49;96320;;;3.6;78.5
68965;BME280;56017;48.680;8.998;2023-04-21T05:24:20;96330;;;3.6;78.5
68965;BME280;56017;48.680;8.998;2023-04-21T05:26:51;96330;;;3.6;79
68965;BME280;56017;48.680;8.998;2023-04-21T05:29:21;96320;;;3.8;78.5
68965;BME280;56017;48.680;8.998;2023-04-21T05:31:52;96320;;;4;78
68965;BME280;56017;48.680;8.998;2023-04-21T05:34:23;96330;;;4.2;78
68965;BME280;56017;48.680;8.998;2023-04-21T05:36:54;96320;;;4.4;78
68965;BME280;56017;48.680;8.998;2023-04-21T05:39:26;96330;;;4.6;78
68965;BME280;56017;48.680;8.998;2023-04-21T05:41:56;96320;;;4.6;78
68965;BME280;56017;48.680;8.998;2023-04-21T05:44:27;96320;;;4.7;78
68965;BME280;56017;48.680;8.998;2023-04-21T05:46:58;96320;;;4.7;78
68965;BME280;56017;48.680;8.998;2023-04-21T05:52:00;96320;;;4.7;77.5
68965;BME280;56017;48.680;8.998;2023-04-21T05:54:31;96320;;;4.7;78
68965;BME280;56017;48.680;8.998;2023-04-21T05:57:02;96310;;;4.7;78
68965;BME280;56017;48.680;8.998;2023-04-21T05:59:33;96310;;;4.8;78
68965;BME280;56017;48.680;8.998;2023-04-21T06:02:23;96320;;;4.7;77.5
68965;BME280;56017;48.680;8.998;2023-04-21T06:04:40;96310;;;4.4;78.5
68965;BME280;56017;48.680;8.998;2023-04-21T06:07:10;96310;;;4.3;79
68965;BME280;56017;48.680;8.998;2023-04-21T06:12:04;96300;;;4.4;78.5
68965;BME280;56017;48.680;8.998;2023-04-21T06:14:35;96300;;;4.4;78.5
68965;BME280;56017;48.680;8.998;2023-04-21T06:17:06;96310;;;4.5;78.5
68965;BME280;56017;48.680;8.998;2023-04-21T06:19:37;96310;;;4.4;78.5
68965;BME280;56017;48.680;8.998;2023-04-21T06:22:08;96310;;;4.6;79
68965;BME280;56017;48.680;8.998;2023-04-21T06:27:10;96310;;;4.8;79
68965;BME280;56017;48.680;8.998;2023-04-21T06:29:41;96310;;;5;79
68965;BME280;56017;48.680;8.998;2023-04-21T06:32:12;96320;;;5.2;79
68965;BME280;56017;48.680;8.998;2023-04-21T06:34:43;96310;;;5.3;78.5
68965;BME280;56017;48.680;8.998;2023-04-21T06:37:14;96310;;;5.4;78.5
68965;BME280;56017;48.680;8.998;2023-04-21T06:39:45;96300;;;5.4;78.5
68965;BME280;56017;48.680;8.998;2023-04-21T06:42:16;96300;;;5.6;78.5
68965;BME280;56017;48.680;8.998;2023-04-21T06:44:46;96290;;;5.9;78.5
68965;BME280;56017;48.680;8.998;2023-04-21T06:47:17;96290;;;6.2;78
68965;BME280;56017;48.680;8.998;2023-04-21T06:49:48;96300;;;6.3;78
68965;BME280;56017;48.680;8.998;2023-04-21T06:52:19;96300;;;6.4;78
68965;BME280;56017;48.680;8.998;2023-04-21T06:57:27;96290;;;6.1;78.5
68965;BME280;56017;48.680;8.998;2023-04-21T07:00:04;96300;;;6.1;78.5
68965;BME280;56017;48.680;8.998;2023-04-21T07:02:28;96300;;;5.9;79
68965;BME280;56017;48.680;8.998;2023-04-21T07:04:52;96290;;;5.8;79
68965;BME280;56017;48.680;8.998;2023-04-21T07:09:54;96290;;;5.8;79.5
68965;BME280;56017;48.680;8.998;2023-04-21T07:12:25;96290;;;6;79
68965;BME280;56017;48.680;8.998;2023-04-21T07:14:56;96280;;;6.1;79
68965;BME280;56017;48.680;8.998;2023-04-21T07:17:27;96290;;;6.2;79
68965;BME280;56017;48.680;8.998;2023-04-21T07:19:58;96280;;;6.3;79
68965;BME280;56017;48.680;8.998;2023-04-21T07:22:29;96280;;;6.3;78.5
68965;BME280;56017;48.680;8.998;2023-04-21T07:25:01;96280;;;6.3;79
68965;BME280;56017;48.680;8.998;2023-04-21T07:27:31;96290;;;6.4;78.5
68965;BME280;56017;48.680;8.998;2023-04-21T07:32:39;96290;;;6.4;79
68965;BME280;56017;48.680;8.998;2023-04-21T07:35:04;96280;;;6.5;79
68965;BME280;56017;48.680;8.998;2023-04-21T07:37:35;96290;;;6.6;79
68965;BME280;56017;48.680;8.998;2023-04-21T07:40:07;96280;;;6.7;79
68965;BME280;56017;48.680;8.998;2023-04-21T07:42:37;96290;;;6.8;78.5
68965;BME280;56017;48.680;8.998;2023-04-21T07:47:44;96280;;;7.1;79
68965;BME280;56017;48.680;8.998;2023-04-21T07:50:21;96280;;;7.2;79
68965;BME280;56017;48.680;8.998;2023-04-21T07:52:44;96280;;;7.4;79
68965;BME280;56017;48.680;8.998;2023-04-21T07:55:09;96270;;;7.6;79
68965;BME280;56017;48.680;8.998;2023-04-21T07:57:40;96270;;;7.8;79
68965;BME280;56017;48.680;8.998;2023-04-21T08:00:11;96270;;;8.1;79
68965;BME280;56017;48.680;8.998;2023-04-21T08:02:41;96270;;;8.2;78.5
68965;BME280;56017;48.680;8.998;2023-04-21T08:05:12;96260;;;8.3;79
68965;BME280;56017;48.680;8.998;2023-04-21T08:10:20;96250;;;8.7;78.5
68965;BME280;56017;48.680;8.998;2023-04-21T08:12:57;96250;;;8.8;78.5
68965;BME280;56017;48.680;8.998;2023-04-21T08:15:21;96250;;;9;78.5
68965;BME280;56017;48.680;8.998;2023-04-21T08:20:16;96250;;;9.1;79
68965;BME280;56017;48.680;8.998;2023-04-21T08:25:18;96240;;;9.3;78.5
68965;BME280;56017;48.680;8.998;2023-04-21T08:30:19;96240;;;9.5;78.5
68965;BME280;56017;48.680;8.998;2023-04-21T08:35:22;96240;;;9.9;78.5
68965;BME280;56017;48.680;8.998;2023-04-21T08:40:26;96240;;;10.1;78.5
68965;BME280;56017;48.680;8.998;2023-04-21T08:45:26;96240;;;10.3;78.5
68965;BME280;56017;48.680;8.998;2023-04-21T08:50:28;96240;;;10.6;78.5
68965;BME280;56017;48.680;8.998;2023-04-21T08:52:59;96240;;;10.7;78.5
68965;BME280;56017;48.680;8.998;2023-04-21T08:55:29;96240;;;10.8;78.5
68965;BME280;56017;48.680;8.998;2023-04-21T09:00:30;96230;;;11.1;78
68965;BME280;56017;48.680;8.998;2023-04-21T09:03:01;96240;;;11.3;78
68965;BME280;56017;48.680;8.998;2023-04-21T09:05:32;96240;;;11.4;78
68965;BME280;56017;48.680;8.998;2023-04-21T09:08:10;96240;;;11.5;78
68965;BME280;56017;48.680;8.998;2023-04-21T09:10:41;96240;;;11.6;78
68965;BME280;56017;48.680;8.998;2023-04-21T09:13:05;96240;;;11.7;78
68965;BME280;56017;48.680;8.998;2023-04-21T09:15:37;96240;;;11.7;78
68965;BME280;56017;48.680;8.998;2023-04-21T09:18:22;96230;;;11.9;78
68965;BME280;56017;48.680;8.998;2023-04-21T09:20:37;96230;;;12.1;77.5
68965;BME280;56017;48.680;8.998;2023-04-21T09:23:09;96230;;;12.2;77.5
68965;BME280;56017;48.680;8.998;2023-04-21T09:25:40;96220;;;12.4;77.5
68965;BME280;56017;48.680;8.998;2023-04-21T09:28:12;96220;;;12.5;77.5
68965;BME280;56017;48.680;8.998;2023-04-21T09:30:41;96210;;;12.5;78
68965;BME280;56017;48.680;8.998;2023-04-21T09:33:14;96210;;;12.5;78
68965;BME280;56017;48.680;8.998;2023-04-21T09:35:43;96220;;;12.6;78
68965;BME280;56017;48.680;8.998;2023-04-21T09:38:14;96220;;;12.9;78
68965;BME280;56017;48.680;8.998;2023-04-21T09:40:45;96220;;;13.1;77.5
68965;BME280;56017;48.680;8.998;2023-04-21T09:43:16;96220;;;13.2;77.5
68965;BME280;56017;48.680;8.998;2023-04-21T09:45:54;96220;;;13.4;77.5
68965;BME280;56017;48.680;8.998;2023-04-21T09:48:18;96210;;;13.6;77.5
68965;BME280;56017;48.680;8.998;2023-04-21T09:50:50;96200;;;13.8;77.5
68965;BME280;56017;48.680;8.998;2023-04-21T09:53:21;96200;;;14.8;79.5
68965;BME280;56017;48.680;8.998;2023-04-21T09:55:51;96190;;;16.5;82
68965;BME280;56017;48.680;8.998;2023-04-21T09:58:22;96190;;;18.3;79
68965;BME280;56017;48.680;8.998;2023-04-21T10:00:53;96190;;;19.5;76.5
68965;BME280;56017;48.680;8.998;2023-04-21T10:03:26;96180;;;20;74
68965;BME280;56017;48.680;8.998;2023-04-21T10:05:55;96180;;;20;74
68965;BME280;56017;48.680;8.998;2023-04-21T10:08:26;96180;;;20.2;73
68965;BME280;56017;48.680;8.998;2023-04-21T10:10:57;96180;;;20;71.5
68965;BME280;56017;48.680;8.998;2023-04-21T10:13:28;96190;;;19.9;71.5
68965;BME280;56017;48.680;8.998;2023-04-21T10:21:02;96180;;;19.9;74.5
68965;BME280;56017;48.680;8.998;2023-04-21T10:26:03;96170;;;20.3;73.5
68965;BME280;56017;48.680;8.998;2023-04-21T10:31:21;96170;;;20.6;71
68965;BME280;56017;48.680;8.998;2023-04-21T10:36:09;96160;;;20.6;70.5
68965;BME280;56017;48.680;8.998;2023-04-21T10:47:14;96160;;;18.6;72.5
68965;BME280;56017;48.680;8.998;2023-04-21T10:48:50;96160;;;18.9;73.5
68965;BME280;56017;48.680;8.998;2023-04-21T10:51:24;96150;;;19;72.5
68965;BME280;56017;48.680;8.998;2023-04-21T11:01:16;96150;;;18.4;73
68965;BME280;56017;48.680;8.998;2023-04-21T11:06:18;96150;;;18.3;74.5
68965;BME280;56017;48.680;8.998;2023-04-21T11:11:21;96150;;;18.6;74.5
68965;BME280;56017;48.680;8.998;2023-04-21T11:16:22;96140;;;18.8;74
68965;BME280;56017;48.680;8.998;2023-04-21T11:21:24;96130;;;19.2;74
68965;BME280;56017;48.680;8.998;2023-04-21T11:23:56;96130;;;19.1;74.5
68965;BME280;56017;48.680;8.998;2023-04-21T11:26:34;96140;;;19.2;74.5
68965;BME280;56017;48.680;8.998;2023-04-21T11:36:33;96120;;;19;74.5
68965;BME280;56017;48.680;8.998;2023-04-21T11:41:33;96120;;;19.5;74.5
68965;BME280;56017;48.680;8.998;2023-04-21T11:46:34;96120;;;19.9;74.5
68965;BME280;56017;48.680;8.998;2023-04-21T11:51:36;96120;;;19.9;74.5
68965;BME280;56017;48.680;8.998;2023-04-21T11:56:39;96120;;;20.2;74
68965;BME280;56017;48.680;8.998;2023-04-21T12:01:48;96120;;;20.2;74.5
68965;BME280;56017;48.680;8.998;2023-04-21T12:06:42;96120;;;19.8;74.5
68965;BME280;56017;48.680;8.998;2023-04-21T12:11:46;96110;;;19.6;75
68965;BME280;56017;48.680;8.998;2023-04-21T12:16:47;96100;;;19.5;75.5
68965;BME280;56017;48.680;8.998;2023-04-21T12:21:51;96100;;;20;76.5
68965;BME280;56017;48.680;8.998;2023-04-21T12:26:49;96100;;;20.8;75.5
68965;BME280;56017;48.680;8.998;2023-04-21T12:29:25;96090;;;21;74.5
68965;BME280;56017;48.680;8.998;2023-04-21T12:31:51;96090;;;20.9;75
68965;BME280;56017;48.680;8.998;2023-04-21T12:34:25;96090;;;21;74
68965;BME280;56017;48.680;8.998;2023-04-21T12:36:54;96090;;;20.8;75
68965;BME280;56017;48.680;8.998;2023-04-21T12:46:57;96080;;;21.2;75
68965;BME280;56017;48.680;8.998;2023-04-21T12:49:29;96080;;;21.7;75
68965;BME280;56017;48.680;8.998;2023-04-21T12:51:59;96070;;;22;74
68965;BME280;56017;48.680;8.998;2023-04-21T12:57:01;96080;;;22.7;74.5
68965;BME280;56017;48.680;8.998;2023-04-21T13:02:03;96060;;;23.5;74.5
68965;BME280;56017;48.680;8.998;2023-04-21T13:04:34;96060;;;23.8;74
68965;BME280;56017;48.680;8.998;2023-04-21T13:07:05;96070;;;23.6;74.5
68965;BME280;56017;48.680;8.998;2023-04-21T13:14:36;96060;;;24.3;75
68965;BME280;56017;48.680;8.998;2023-04-21T13:17:08;96070;;;24.4;75.5
68965;BME280;56017;48.680;8.998;2023-04-21T13:19:46;96070;;;23.6;76
68965;BME280;56017;48.680;8.998;2023-04-21T13:22:09;96070;;;23.6;74.5
68965;BME280;56017;48.680;8.998;2023-04-21T13:24:40;96070;;;23.5;74.5
68965;BME280;56017;48.680;8.998;2023-04-21T13:27:18;96070;;;23.7;75
68965;BME280;56017;48.680;8.998;2023-04-21T13:29:42;96060;;;24.3;76
68965;BME280;56017;48.680;8.998;2023-04-21T13:32:20;96050;;;24.8;75
68965;BME280;56017;48.680;8.998;2023-04-21T13:34:44;96050;;;24.5;75.5
68965;BME280;56017;48.680;8.998;2023-04-21T13:37:15;96050;;;24.5;74.5
68965;BME280;56017;48.680;8.998;2023-04-21T13:39:46;96050;;;24.8;75.5
68965;BME280;56017;48.680;8.998;2023-04-21T13:42:17;96050;;;25;75.5
68965;BME280;56017;48.680;8.998;2023-04-21T13:44:48;96050;;;25.3;75
68965;BME280;56017;48.680;8.998;2023-04-21T13:47:19;96040;;;25;76.5
68965;BME280;56017;48.680;8.998;2023-04-21T13:49:50;96030;;;25.5;75.5
68965;BME280;56017;48.680;8.998;2023-04-21T13:52:21;96030;;;25.7;74
68965;BME280;56017;48.680;8.998;2023-04-21T13:54:52;96040;;;25.6;74.5
68965;BME280;56017;48.680;8.998;2023-04-21T13:57:23;96030;;;25.5;76
68965;BME280;56017;48.680;8.998;2023-04-21T13:59:54;96030;;;25.2;77
68965;BME280;56017;48.680;8.998;2023-04-21T14:02:25;96030;;;25;77
68965;BME280;56017;48.680;8.998;2023-04-21T14:04:56;96030;;;25.3;77
68965;BME280;56017;48.680;8.998;2023-04-21T14:07:27;96020;;;25.2;77
68965;BME280;56017;48.680;8.998;2023-04-21T14:09:58;96010;;;24.8;78.5
68965;BME280;56017;48.680;8.998;2023-04-21T14:12:29;96000;;;24.4;79.5
68965;BME280;56017;48.680;8.998;2023-04-21T14:15:00;95990;;;24.6;79.5
68965;BME280;56017;48.680;8.998;2023-04-21T14:17:31;95980;;;24.4;79.5
68965;BME280;56017;48.680;8.998;2023-04-21T14:20:02;95980;;;24.4;80
68965;BME280;56017;48.680;8.998;2023-04-21T14:22:33;95990;;;24.5;78.5
68965;BME280;56017;48.680;8.998;2023-04-21T14:25:04;96000;;;24.3;78
68965;BME280;56017;48.680;8.998;2023-04-21T14:27:41;96000;;;24.5;79
68965;BME280;56017;48.680;8.998;2023-04-21T14:30:06;96000;;;24.9;79
68965;BME280;56017;48.680;8.998;2023-04-21T14:32:37;95990;;;25.2;78
68965;BME280;56017;48.680;8.998;2023-04-21T14:35:08;95990;;;24.2;78
68965;BME280;56017;48.680;8.998;2023-04-21T14:37:39;96000;;;23.3;78
68965;BME280;56017;48.680;8.998;2023-04-21T14:40:14;96000;;;22.3;80
68965;BME280;56017;48.680;8.998;2023-04-21T14:42:40;96000;;;22.4;81
68965;BME280;56017;48.680;8.998;2023-04-21T14:45:11;95990;;;23.6;80.5
68965;BME280;56017;48.680;8.998;2023-04-21T14:47:42;95970;;;24.7;79
68965;BME280;56017;48.680;8.998;2023-04-21T14:50:13;95970;;;24.4;78.5
68965;BME280;56017;48.680;8.998;2023-04-21T14:52:44;95970;;;23.2;78.5
68965;BME280;56017;48.680;8.998;2023-04-21T14:55:15;95980;;;22.3;79
68965;BME280;56017;48.680;8.998;2023-04-21T14:57:53;95980;;;21.6;79.5
68965;BME280;56017;48.680;8.998;2023-04-21T15:00:17;95980;;;21;80.5
68965;BME280;56017;48.680;8.998;2023-04-21T15:02:48;95980;;;20.6;81
68965;BME280;56017;48.680;8.998;2023-04-21T15:05:19;95970;;;20.4;81
68965;BME280;56017;48.680;8.998;2023-04-21T15:07:50;95970;;;20.3;81
68965;BME280;56017;48.680;8.998;2023-04-21T15:10:21;95970;;;20.2;80.5
68965;BME280;56017;48.680;8.998;2023-04-21T15:12:52;95970;;;20;80.5
68965;BME280;56017;48.680;8.998;2023-04-21T15:15:23;95980;;;20;81
68965;BME280;56017;48.680;8.998;2023-04-21T15:17:54;95970;;;20;80.5
68965;BME280;56017;48.680;8.998;2023-04-21T15:20:25;95970;;;20;81
68965;BME280;56017;48.680;8.998;2023-04-21T15:22:56;95970;;;20.3;81
68965;BME280;56017;48.680;8.998;2023-04-21T15:25:28;95970;;;20.9;80
68965;BME280;56017;48.680;8.998;2023-04-21T15:27:58;95970;;;21.5;79
68965;BME280;56017;48.680;8.998;2023-04-21T15:30:31;95960;;;21.9;79
68965;BME280;56017;48.680;8.998;2023-04-21T15:33:00;95970;;;22.3;79.5
68965;BME280;56017;48.680;8.998;2023-04-21T15:35:31;95960;;;22.6;79.5
68965;BME280;56017;48.680;8.998;2023-04-21T15:38:02;95960;;;22.8;79
68965;BME280;56017;48.680;8.998;2023-04-21T15:40:33;95960;;;23.1;78
68965;BME280;56017;48.680;8.998;2023-04-21T15:43:10;95960;;;23.1;78.5
68965;BME280;56017;48.680;8.998;2023-04-21T15:45:35;95960;;;23.4;79
68965;BME280;56017;48.680;8.998;2023-04-21T15:48:06;95950;;;24.1;78.5
68965;BME280;56017;48.680;8.998;2023-04-21T15:50:37;95960;;;24.6;78
68965;BME280;56017;48.680;8.998;2023-04-21T15:53:08;95960;;;24.9;76.5
68965;BME280;56017;48.680;8.998;2023-04-21T15:55:39;95960;;;24.9;77
68965;BME280;56017;48.680;8.998;2023-04-21T15:58:16;95960;;;24.8;77
68965;BME280;56017;48.680;8.998;2023-04-21T16:00:41;95950;;;24.7;75.5
68965;BME280;56017;48.680;8.998;2023-04-21T16:03:12;95960;;;23.8;75.5
68965;BME280;56017;48.680;8.998;2023-04-21T16:05:43;95950;;;22.8;77.5
68965;BME280;56017;48.680;8.998;2023-04-21T16:08:14;95950;;;22.1;78.5
68965;BME280;56017;48.680;8.998;2023-04-21T16:10:45;95950;;;21.4;79.5
68965;BME280;56017;48.680;8.998;2023-04-21T16:13:16;95950;;;20.9;79.5
68965;BME280;56017;48.680;8.998;2023-04-21T16:15:46;95950;;;20.6;80
68965;BME280;56017;48.680;8.998;2023-04-21T16:18:17;95960;;;20.4;80
68965;BME280;56017;48.680;8.998;2023-04-21T16:20:48;95960;;;20.2;80
68965;BME280;56017;48.680;8.998;2023-04-21T16:23:19;95960;;;19.9;80.5
68965;BME280;56017;48.680;8.998;2023-04-21T16:25:50;95960;;;19.7;80
68965;BME280;56017;48.680;8.998;2023-04-21T16:28:28;95960;;;19.5;80.5
68965;BME280;56017;48.680;8.998;2023-04-21T16:30:52;95950;;;19.4;80.5
68965;BME280;56017;48.680;8.998;2023-04-21T16:33:23;95960;;;19.2;80
68965;BME280;56017;48.680;8.998;2023-04-21T16:35:54;95960;;;18.9;80
68965;BME280;56017;48.680;8.998;2023-04-21T16:38:32;95960;;;18.6;80.5
68965;BME280;56017;48.680;8.998;2023-04-21T16:40:56;95960;;;18.5;80.5
68965;BME280;56017;48.680;8.998;2023-04-21T16:43:27;95950;;;18.4;81
68965;BME280;56017;48.680;8.998;2023-04-21T16:45:58;95950;;;18.4;81
68965;BME280;56017;48.680;8.998;2023-04-21T16:48:29;95960;;;18.4;81